AirNav   Air Wisconsin pilot careers
 
 1013 users online  

K96 Tuscola Airport
Tuscola, Illinois, USA

GOING TO TUSCOLA?


FAA INFORMATION EFFECTIVE 18 JULY 2019

Location

FAA Identifier: K96
Lat/Long: 39-46-52.3100N / 088-18-23.2050W
39-46.871833N / 088-18.386750W
39.7811972 / -88.3064458
(estimated)
Elevation: 665 ft. / 203 m (estimated)
Variation: 00W (1985)
From city: 2 miles SW of TUSCOLA, IL
Time zone: UTC -5 (UTC -6 during Standard Time)
Zip code: 61953

Airport Operations

Airport use: Open to the public
Activation date: 04/1954
Control tower: no
ARTCC: CHICAGO CENTER
FSS: SAINT LOUIS FLIGHT SERVICE STATION
NOTAMs facility: STL (NOTAM-D service available)
Attendance: SAT-SUN ON CALL, ALL MON-FRI IRREGULAR
Pattern altitude: 1465 ft. MSL
Wind indicator: lighted
Segmented circle: no
Lights: SS-SR

Airport Communications

CTAF: 122.9
WX ASOS at CMI (16 nm N): 124.85 (217-355-4072)
WX ASOS at MTO (18 nm S): 118.475 (217-234-8442)

Nearby radio navigation aids

VOR radial/distance  VOR name  Freq  Var
CMIr182/15.3CHAMPAIGN VORTAC110.0003E
AXCr081/25.5ADDERS VORTAC117.2003E

 
NDB name  Hdg/Dist  Freq  Var  ID
VEALS210/12.540703WCM -.-. --
SHELBYVILLE050/33.536502WSYZ ... -.-- --..

Airport Services

Fuel available: 100LL MOGAS
Parking: hangars and tiedowns
Airframe service: MAJOR
Powerplant service: MAJOR
Bottled oxygen: NONE
Bulk oxygen: NONE

Runway Information

Runway 9/27

Dimensions: 2660 x 30 ft. / 811 x 9 m
Surface: asphalt, in good condition
SFC IS A CHIP & SEAL.
Runway edge lights: low intensity
RY LGTING ALIGNMENT DOES NOT DEFINE CENTER OF RY. RY 27 DSPLCD THLD LGTS NTSD: CONSIST OF TWO ON EACH SIDE SPACED AT 10 FT BETWEEN LGTS.
RUNWAY 9  RUNWAY 27
Latitude: 39-46.875167N39-46.868500N
Longitude: 088-18.670667W088-18.102833W
Elevation: 665.0 ft.665.0 ft.
Traffic pattern: leftleft
Displaced threshold: no660 ft.
Markings: nonenone
Runway end identifier lights: nono
Obstructions: none15 ft. road, 15 ft. from runway, 1:1 slope to clear
+15 FT BLDS 100 FT BOTH SIDES CNTRLN IN PRIM SFC.

Airport Ownership and Management from official FAA records

Ownership: Privately-owned
Owner: DAVID HRUPSA
4960 FORT DENAUD RD
FORT DENAUD, FL 33935
Phone (252) 945-4804
Manager: JERRY ADKISSON
880 N. COUNTY RD-900E
TUSCOLA, IL 61953
Phone (217) 840-3934

Airport Operational Statistics

Aircraft based on the field: 3
Ultralights: 3
    
Aircraft operations: avg 23/day *
59% local general aviation
41% transient general aviation
* for 12-month period ending 31 January 2019

Additional Remarks

SEASONAL CROPS AER RY 09 CAN PERIODICALLY BLOCK VIEW OF THLD LGTS.
SEASONAL AGRICULTURAL OPERATIONS CONDUCTED FM ARPT.
FOR SVC WHEN ARPT UNATTND, CALL CELL PHONE 217-840-3934 OR LAND PHONE 217-253-3934
FOR CD CTC CHAMPAIGN APCH AT 217-355-4069, WHEN APCH CLSD CTC CHICAGO ARTCC AT 630-906-8921

Instrument Procedures

There are no published instrument procedures at K96.

Some nearby airports with instrument procedures:

KCMI - University of Illinois-Willard Airport (16 nm N)
KMTO - Coles County Memorial Airport (18 nm S)
C16 - Frasca Field Airport (22 nm N)
KDEC - Decatur Airport (26 nm W)
KPRG - Edgar County Airport (30 nm E)
 
Loc | Ops | Rwys | IFR | FBO | Links
Com | Nav | Svcs | Stats | Notes
Area around K96 (Tuscola Airport)
 
Road maps at: MapQuest Bing Google
 
Aerial photo
WARNING: Photo may not be current or correct
Aerial photo of K96 (Tuscola Airport)
Do you have a better or more recent aerial photo of Tuscola Airport that you would like to share? If so, please send us your photo.

 
Sectional chart

 
Airport distance calculator
Flying to Tuscola Airport? Find the distance to fly.

From to K96

Sunrise and sunset
Times for 20-Jul-2019
 Local
(UTC-5)
 Zulu
(UTC)
Morning civil twilight05:1110:11
Sunrise05:4310:43
Sunset20:1701:17
Evening civil twilight20:4801:48

Current date and time
Zulu (UTC)  20-Jul-2019 23:01:28
Local (UTC-5)  20-Jul-2019 18:01:28
 
METAR
KCMI 
15nm N 
202253Z 20009KT 10SM CLR 32/23 A2990 RMK AO2 SLP117 T03220228
KMTO 
19nm S 
202253Z AUTO 22006KT 10SM CLR 32/23 A2990 RMK AO2 SLP116 T03220228
KDEC 
25nm W 
202254Z 20010G19KT 10SM CLR 33/22 A2989 RMK AO2 SLP113 T03280222
KPRG 
30nm E 
202255Z AUTO 22006KT 10SM CLR 33/26 A2992 RMK AO2 T03320257
TAF
KCMI 
15nm N 
202007Z 2020/2118 22012G20KT P6SM SCT040 FM210200 19006KT P6SM SKC FM211200 23006KT P6SM BKN250 FM211400 28007KT P6SM VCTS BKN050CB
NOTAMs
Click for the latest NOTAMs
NOTAMs are issued by the DoD/FAA and will open in a separate window not controlled by AirNav.

 

 
 

FBO, Fuel Providers, and Aircraft Ground Support

  
 Business Name 
 
 Contact 
 
 Services / Description 
 
Fuel Prices
 
Comments
  
Tuscola Airport 217-840-3934
no information available

If you are affiliated with Tuscola Airport and would like to show here your services, contact info, web link, logo, and more, click here
100LL
AS $4.74 
 Updated 07-Feb-2018
 
   write
AS=Assisted/Self Service
Update Fuel Prices
 

Would you like to see your business listed on this page?

 If your business provides an interesting product or service to pilots, flight crews, aircraft, or users of the Tuscola Airport, you should consider listing it here.  To start the listing process, click on the button below
 
Add a business
 

Other Pages about Tuscola Airport

Update a link
 
Copyright © AirNav, LLC. All rights reserved. Privacy Policy  Contact